map of VCV home
VCV - Airport
Location
City:  Victorville, California, United States
Name:Southern California Logistics Airport
ICAO:KVCV
IATA:VCV
FAA LID:VCV

Details
Type:Airport (Part 139 Class IV)
Use:Public/Civil
Latitude:34°35'51"N (34.597472)
Longitude:117°22'59"W (-117.382999)
Datum:WGS 1984
Elevation:2885 ft (879 m)
Variation:11.92°E (WMM2015 magnetic declination)
-0.09° annual change
Runways:2
Longest:15050 × 150 ft (4587 × 45.5 m), paved

Time
Time Zone:UTC-8 (DST-7)
Local Time:

Weather
METAR:KVCV 201115Z AUTO 00000KT 10SM CLR 03/M14 A3008 RMK AO2

Related Locations
Nearby:
Farthest:ZSE: 11419 mi / 18377 km
St-Pierre (St-Pierre de la Réunion) [Pierrefonds], RE

Find:

   beyond  
but within

Other Information
Maps:
NOTAMs:
Links:
Sources:

  
flag of United States
flag of California
  

Airport Diagram

Airport diagram for VCV

Airport diagram PDF

Sectional Chart

Flight Planning
at skyvector.com

Satellite Image

Google Maps Satellite view

 

Copyright © 2004-2017 Karl L. Swartz. All rights reserved.
The Great Circle Mapper name and logo are trademarks of the Great Circle Mapper.
All other trademarks mentioned herein belong to their respective owners.
Please see credits for attibutions and further copyright information.

  Follow gcmap on Facebook Follow gcmap on Twitter Follow gcmap on Google+ GCmap on LinkedIn

hCard Microformat

Geo Microformat